PAWN Airport Information

Runway Information
Runway 01 Length 4000 ft width 60 ft
Elevation 80 ft Threshold 0 ft Heading 22
Runway 19 Length 4000 ft Width 60 ft
Elevation 88 ft Threshold 0 ft Heading 202
Airport Frequencies
Type AWOS Name AWOS 3 Frequency 135.75 MHZ
Type CNTR Name ANCHORAGE Frequency 119.2 MHZ
Type FSS Name KOTZEBUE R Frequency 122.4 MHZ
Type UNIC Name CTAF/UNICO Frequency 122.8 MHZ
Airport Navaids
Type NDB-DME Name Noatak Frequency 414 KHZ
Airport Weather Information & NOTAM
ADDS - METARS form results

(0902 UTC 22 January 2019)
Data provider http://aviationweather.gov/metar/data/
 
METAR text: PAWN 220856Z AUTO 01010KT 10SM CLR M22/M26 A2996 RMK AO2 SLP162 T12171256 56007 FZRANO
Conditions at: PAWN (NOATAK , AK, US) observed 0856 UTC 22 January 2019
Temperature: -21.7°C (-7°F)
Dewpoint: -25.6°C (-14°F) [RH = 71%]
Pressure (altimeter): 29.96 inches Hg (1014.6 mb)
[Sea-level pressure: 1016.2 mb]
Winds: from the N (10 degrees) at 12 MPH (10 knots; 5.1 m/s)
Visibility: 10 or more miles (16+ km)
Ceiling: at least 12,000 feet AGL
Clouds: sky clear below 12,000 feet AGL
Weather: automated observation with no human augmentation;
there may or may not be significant weather present at this time